Hobart, Oklahoma
Current Conditions -  °F | °C
As of 11:53 AM on Thursday 27 Nov 2014 (Local Time) from KHBR Reporting Station
Clear Clear  
Wind Chill: 38°   Ceiling: Unl
Heat Index: 44°   Visibility: 10mi
Dew Point: 28°   Wind: 13mph
Humidity: 53%   Direction: 200°SSW
Pressure: 30.49"   Gusts: NA
Location:  35.03°N, 99.09°W
Report Text: KHBR 271753Z AUTO 20011KT 10SM CLR 07/M02 A3049 RMK AO2 SLP332 T00671022 10067 21022 58013
Loading
Personal Weather Stations






























Interactive Weather Map New forecast layout! Learn more

10-Day Weather Forecast

Advertisements
Track Severe Weather on mobile